createdAt,value
2017-01-29T00:00:59.181Z,95.78
2017-01-29T00:02:13.026Z,95.73
2017-01-29T00:03:26.860Z,95.1
2017-01-29T00:04:40.688Z,95.25
2017-01-29T00:05:54.532Z,95.06
2017-01-29T00:07:08.357Z,95.25
2017-01-29T00:08:22.182Z,95.25
2017-01-29T00:09:36.011Z,94.67
2017-01-29T00:10:49.838Z,94.76
2017-01-29T00:12:03.672Z,94.71
2017-01-29T00:13:16.291Z,94.43
2017-01-29T00:14:43.388Z,94.91
2017-01-29T00:15:57.217Z,94.52
2017-01-29T00:17:11.044Z,94.23
2017-01-29T00:18:24.875Z,94.62
2017-01-29T00:19:38.694Z,94.81
2017-01-29T00:22:20.466Z,94.43
2017-01-29T00:23:34.315Z,94.81
2017-01-29T00:24:48.387Z,94.76
2017-01-29T00:26:02.220Z,94.57
2017-01-29T00:27:16.043Z,94.91
2017-01-29T00:28:29.865Z,94.76
2017-01-29T00:29:43.685Z,94.48
2017-01-29T00:30:57.511Z,94.38
2017-01-29T00:32:10.728Z,94.57
2017-01-29T00:33:24.551Z,94.52
2017-01-29T00:34:38.379Z,94.43
2017-01-29T00:35:52.450Z,94.91
2017-01-29T00:37:06.274Z,94.62
2017-01-29T00:38:20.096Z,94.18
2017-01-29T00:39:47.783Z,93.94
2017-01-29T00:41:01.612Z,94.52
2017-01-29T00:42:14.219Z,94.52
2017-01-29T00:43:28.046Z,94.67
2017-01-29T00:44:41.866Z,94.71
2017-01-29T00:46:08.346Z,94.91
2017-01-29T00:49:03.732Z,94.81
2017-01-29T00:50:16.947Z,94.81
2017-01-29T00:51:31.127Z,94.81
2017-01-29T00:52:44.949Z,94.81
2017-01-29T00:53:58.775Z,94.81
2017-01-29T00:55:12.626Z,94.71
2017-01-29T00:56:26.469Z,94.91
2017-01-29T00:57:40.317Z,95.73
2017-01-29T00:58:54.152Z,95.59
2017-01-29T01:00:21.841Z,95.54
2017-01-29T01:01:35.665Z,95.49
2017-01-29T01:02:48.884Z,95.44
2017-01-29T01:04:02.716Z,95.64
2017-01-29T01:05:16.538Z,95.83
2017-01-29T01:06:30.367Z,95.59
2017-01-29T01:07:44.386Z,95.68
2017-01-29T01:08:58.210Z,95.54
2017-01-29T01:10:12.034Z,95.59
2017-01-29T01:11:25.255Z,95.29
2017-01-29T01:12:39.275Z,95.68
2017-01-29T01:13:52.494Z,95.39
2017-01-29T01:15:05.717Z,95.64
2017-01-29T01:16:18.934Z,95.78
2017-01-29T01:17:32.765Z,95.29
2017-01-29T01:18:46.585Z,95.49
2017-01-29T01:20:00.415Z,95.01
2017-01-29T01:21:13.636Z,95.29
2017-01-29T01:22:27.456Z,95.34
2017-01-29T01:23:40.933Z,95.34
2017-01-29T01:24:54.762Z,95.25
2017-01-29T01:26:07.982Z,96.22
2017-01-29T01:27:21.808Z,96.31
2017-01-29T01:28:35.851Z,96.26
2017-01-29T01:29:49.677Z,96.12
2017-01-29T01:32:30.586Z,96.26
2017-01-29T01:33:44.663Z,96.02
2017-01-29T01:34:58.480Z,96.07
2017-01-29T01:36:12.308Z,96.31
2017-01-29T01:37:26.134Z,96.26
2017-01-29T01:38:39.353Z,96.8
2017-01-29T01:39:52.573Z,97.09
2017-01-29T01:41:06.396Z,96.84
2017-01-29T01:42:19.614Z,96.7
2017-01-29T01:43:33.437Z,97.42
2017-01-29T01:44:46.296Z,97.13
2017-01-29T01:46:00.147Z,97.77
2017-01-29T01:47:13.973Z,97.96
2017-01-29T01:48:27.807Z,98.15
2017-01-29T01:49:41.692Z,98.15
2017-01-29T01:50:55.529Z,98.15
2017-01-29T01:52:09.360Z,98.05
2017-01-29T01:53:23.195Z,98.15
2017-01-29T01:54:37.016Z,98.93
2017-01-29T01:55:51.086Z,98.63
2017-01-29T01:57:04.919Z,98.73
2017-01-29T01:58:17.541Z,98.73
2017-01-29T01:59:31.360Z,98.35
2017-01-29T02:00:59.251Z,98.54
2017-01-29T02:02:13.078Z,99.11
2017-01-29T02:03:26.917Z,98.44
2017-01-29T02:04:40.153Z,98.35
2017-01-29T02:05:54.189Z,99.07
2017-01-29T02:07:06.817Z,98.73
2017-01-29T02:08:20.037Z,99.11
2017-01-29T02:09:33.861Z,99.51
2017-01-29T02:10:47.692Z,99.11
2017-01-29T02:12:01.766Z,98.63
2017-01-29T02:13:14.991Z,98.73
2017-01-29T02:14:28.818Z,98.73
2017-01-29T02:15:42.640Z,99.31
2017-01-29T02:16:56.458Z,99.31
2017-01-29T02:18:09.676Z,99.65
2017-01-29T02:19:23.495Z,99.21
2017-01-29T02:20:51.187Z,98.58
2017-01-29T02:22:05.007Z,99.07
2017-01-29T02:23:18.245Z,99.36
2017-01-29T02:24:32.069Z,99.07
2017-01-29T02:25:45.892Z,99.46
2017-01-29T02:26:59.712Z,99.84
2017-01-29T02:28:13.537Z,99.46
2017-01-29T02:29:26.145Z,99.99
2017-01-29T02:30:39.965Z,99.99
2017-01-29T02:31:53.785Z,99.99
2017-01-29T02:33:07.030Z,99.99
2017-01-29T02:34:20.851Z,99.99
2017-01-29T02:35:34.672Z,99.99
2017-01-29T02:36:47.893Z,99.99
2017-01-29T02:38:01.766Z,99.99
2017-01-29T02:39:29.486Z,99.84
2017-01-29T02:40:43.309Z,99.69
2017-01-29T02:41:56.544Z,99.65
2017-01-29T02:43:10.385Z,99.99
2017-01-29T02:44:24.221Z,99.99
2017-01-29T02:45:38.049Z,99.99
2017-01-29T02:46:51.263Z,99.99
2017-01-29T02:48:03.875Z,99.99
2017-01-29T02:49:17.953Z,99.99
2017-01-29T02:50:31.784Z,99.99
2017-01-29T02:53:12.703Z,99.99
2017-01-29T02:54:26.533Z,99.99
2017-01-29T02:55:40.356Z,99.99
2017-01-29T02:56:54.185Z,99.99
2017-01-29T02:58:08.005Z,99.99
2017-01-29T02:59:21.613Z,99.99
2017-01-29T03:00:35.437Z,99.99
2017-01-29T03:01:49.264Z,99.99
2017-01-29T03:03:02.480Z,99.99
2017-01-29T03:05:44.006Z,99.99
2017-01-29T03:06:57.831Z,99.99
2017-01-29T03:08:10.459Z,99.99
2017-01-29T03:09:24.661Z,99.99
2017-01-29T03:10:37.297Z,99.99
2017-01-29T03:11:51.150Z,99.99
2017-01-29T03:13:05.003Z,99.99
2017-01-29T03:14:18.254Z,99.99
2017-01-29T03:15:32.459Z,99.99
2017-01-29T03:16:46.313Z,99.99
2017-01-29T03:18:00.166Z,99.99
2017-01-29T03:19:14.023Z,99.99
2017-01-29T03:20:28.079Z,99.99
2017-01-29T03:21:41.932Z,99.99
2017-01-29T03:22:55.828Z,99.99
2017-01-29T03:24:09.684Z,99.99
2017-01-29T03:25:23.551Z,99.99
2017-01-29T03:26:37.749Z,99.99
2017-01-29T03:27:51.599Z,99.99
2017-01-29T03:29:04.843Z,99.99
2017-01-29T03:30:18.085Z,99.99
2017-01-29T03:31:31.936Z,99.99
2017-01-29T03:32:45.789Z,99.99
2017-01-29T03:33:59.639Z,99.99
2017-01-29T03:35:13.502Z,99.99
2017-01-29T03:37:54.708Z,99.99
2017-01-29T03:39:08.569Z,99.99
2017-01-29T03:40:22.421Z,99.99
2017-01-29T03:41:36.620Z,99.99
2017-01-29T03:42:50.471Z,99.99
2017-01-29T03:44:03.715Z,99.99
2017-01-29T03:45:17.572Z,99.99
2017-01-29T03:46:31.422Z,99.99
2017-01-29T03:47:45.623Z,99.99
2017-01-29T03:48:59.481Z,99.99
2017-01-29T03:50:13.337Z,99.99
2017-01-29T03:51:27.188Z,99.99
2017-01-29T03:52:41.072Z,99.99
2017-01-29T03:53:54.923Z,99.99
2017-01-29T03:55:08.770Z,99.99
2017-01-29T03:56:22.031Z,99.99
2017-01-29T03:57:36.233Z,99.99
2017-01-29T03:58:50.084Z,99.99
2017-01-29T04:00:03.933Z,99.99
2017-01-29T04:01:17.783Z,99.99
2017-01-29T04:02:31.643Z,99.99
2017-01-29T04:03:45.496Z,99.99
2017-01-29T04:04:59.350Z,99.99
2017-01-29T04:06:13.204Z,99.99
2017-01-29T04:07:27.050Z,99.99
2017-01-29T04:08:40.899Z,99.99
2017-01-29T04:09:54.740Z,99.99
2017-01-29T04:11:08.594Z,99.99
